createdAt,value
2018-10-03T00:00:35.003Z,3.70
2018-10-03T00:03:04.629Z,3.50
2018-10-03T00:05:33.976Z,4.80
2018-10-03T00:08:02.682Z,4.50
2018-10-03T00:10:31.908Z,4.60
2018-10-03T00:13:01.002Z,5.00
2018-10-03T00:15:30.249Z,4.27
2018-10-03T00:18:01.321Z,3.80
2018-10-03T00:20:31.017Z,4.40
2018-10-03T00:23:00.852Z,4.33
2018-10-03T00:25:29.643Z,3.63
2018-10-03T00:27:58.770Z,3.97
2018-10-03T00:30:27.866Z,4.07
2018-10-03T00:32:56.903Z,4.27
2018-10-03T00:35:25.418Z,3.00
2018-10-03T00:37:54.198Z,4.37
2018-10-03T00:40:22.951Z,5.27
2018-10-03T00:42:51.556Z,3.70
2018-10-03T00:45:20.306Z,3.93
2018-10-03T00:47:49.015Z,4.53
2018-10-03T00:50:18.088Z,4.10
2018-10-03T00:52:46.749Z,3.63
2018-10-03T00:55:15.681Z,3.93
2018-10-03T00:57:44.604Z,4.90
2018-10-03T01:00:13.546Z,4.00
2018-10-03T01:02:42.535Z,4.60
2018-10-03T01:05:11.261Z,4.17
2018-10-03T01:07:40.180Z,3.67
2018-10-03T01:10:08.823Z,4.90
2018-10-03T01:12:37.737Z,3.87
2018-10-03T01:15:06.809Z,4.40
2018-10-03T01:17:35.535Z,4.53
2018-10-03T01:20:04.315Z,3.63
2018-10-03T01:22:32.862Z,4.50
2018-10-03T01:25:01.523Z,3.97
2018-10-03T01:27:30.876Z,3.07
2018-10-03T01:30:00.812Z,4.80
2018-10-03T01:32:30.049Z,3.87
2018-10-03T01:34:58.881Z,3.60
2018-10-03T01:37:27.375Z,3.50
2018-10-03T01:39:56.151Z,3.80
2018-10-03T01:42:24.992Z,4.33
2018-10-03T01:44:53.851Z,3.60
2018-10-03T01:47:22.567Z,4.43
2018-10-03T01:49:51.255Z,4.57
2018-10-03T01:52:19.945Z,3.67
2018-10-03T01:54:48.627Z,3.50
2018-10-03T01:57:17.174Z,4.70
2018-10-03T01:59:46.590Z,4.97
2018-10-03T02:02:15.170Z,3.87
2018-10-03T02:04:44.353Z,4.93
2018-10-03T02:07:13.090Z,3.93
2018-10-03T02:09:41.790Z,3.77
2018-10-03T02:12:10.626Z,4.27
2018-10-03T02:14:39.567Z,3.63
2018-10-03T02:17:08.642Z,4.23
2018-10-03T02:19:37.430Z,4.07
2018-10-03T02:22:06.266Z,3.83
2018-10-03T02:24:34.906Z,4.13
2018-10-03T02:27:03.825Z,3.90
2018-10-03T02:29:32.475Z,3.77
2018-10-03T02:32:01.014Z,3.00
2018-10-03T02:34:29.847Z,3.77
2018-10-03T02:36:58.359Z,3.50
2018-10-03T02:39:27.011Z,3.70
2018-10-03T02:41:55.902Z,4.20
2018-10-03T02:44:24.596Z,3.50
2018-10-03T02:46:53.215Z,3.93
2018-10-03T02:49:21.929Z,4.13
2018-10-03T02:51:50.476Z,3.63
2018-10-03T02:54:19.181Z,3.80
2018-10-03T02:56:48.193Z,4.80
2018-10-03T02:59:16.938Z,5.00
2018-10-03T03:01:45.808Z,3.60
2018-10-03T03:04:14.353Z,4.50
2018-10-03T03:06:43.156Z,3.33
2018-10-03T03:09:13.580Z,3.70
2018-10-03T03:11:42.385Z,3.80
2018-10-03T03:14:11.235Z,4.20
2018-10-03T03:16:39.943Z,3.50
2018-10-03T03:19:08.440Z,4.23
2018-10-03T03:21:37.018Z,4.10
2018-10-03T03:24:05.588Z,3.93
2018-10-03T03:26:34.117Z,4.77
2018-10-03T03:29:02.934Z,3.80
2018-10-03T03:31:31.660Z,3.53
2018-10-03T03:34:00.425Z,4.03
2018-10-03T03:36:29.083Z,3.93
2018-10-03T03:38:57.877Z,3.70
2018-10-03T03:41:26.470Z,4.83
2018-10-03T03:43:55.119Z,3.47
2018-10-03T03:46:23.866Z,4.37
2018-10-03T03:48:52.539Z,3.57
2018-10-03T03:51:21.210Z,3.90
2018-10-03T03:53:50.033Z,4.77
2018-10-03T03:56:18.687Z,4.23
2018-10-03T03:58:47.320Z,3.60
2018-10-03T04:04:11.686Z,3.17
2018-10-03T04:06:40.782Z,4.60
2018-10-03T04:09:10.530Z,4.07
2018-10-03T04:11:39.430Z,3.47
2018-10-03T04:14:08.123Z,3.40
2018-10-03T04:16:36.968Z,4.37
2018-10-03T04:19:05.464Z,4.10
2018-10-03T04:21:40.104Z,3.70
2018-10-03T04:24:09.905Z,3.57
2018-10-03T04:26:40.488Z,3.67
2018-10-03T04:29:09.096Z,5.10
2018-10-03T04:31:38.268Z,3.60
2018-10-03T04:34:07.346Z,4.73
2018-10-03T04:36:36.162Z,4.30
2018-10-03T04:39:06.937Z,4.83
2018-10-03T04:41:36.242Z,4.80
2018-10-03T04:44:04.720Z,4.37
2018-10-03T04:46:33.715Z,3.60
2018-10-03T04:49:02.303Z,4.30
2018-10-03T04:51:31.009Z,4.60
2018-10-03T04:53:59.864Z,3.50
2018-10-03T04:56:28.603Z,3.70
2018-10-03T04:58:57.241Z,3.27
2018-10-03T05:01:25.994Z,4.40
2018-10-03T05:03:54.957Z,4.20
2018-10-03T05:06:23.915Z,3.60
2018-10-03T05:08:52.709Z,4.30
2018-10-03T05:11:21.496Z,4.00
2018-10-03T05:13:50.063Z,3.20
2018-10-03T05:16:18.787Z,3.97
2018-10-03T05:18:47.605Z,5.20
2018-10-03T05:21:16.290Z,4.60
2018-10-03T05:23:44.911Z,3.37
2018-10-03T05:26:13.470Z,3.67
2018-10-03T05:28:42.516Z,4.10
2018-10-03T05:31:11.106Z,3.80
2018-10-03T05:33:40.791Z,3.47
2018-10-03T05:36:09.658Z,4.07
2018-10-03T05:38:38.353Z,3.80
2018-10-03T05:41:07.411Z,3.70
2018-10-03T05:43:36.161Z,3.60
2018-10-03T05:46:04.879Z,4.03
2018-10-03T05:48:33.670Z,4.20
2018-10-03T05:51:02.247Z,3.60
2018-10-03T05:53:31.033Z,5.07
2018-10-03T05:55:59.802Z,3.80
2018-10-03T05:58:28.451Z,8.13
2018-10-03T06:00:57.186Z,5.30
2018-10-03T06:03:26.027Z,4.73
2018-10-03T06:05:54.589Z,10.90
2018-10-03T06:08:29.974Z,9.00
2018-10-03T06:10:58.721Z,9.50
2018-10-03T06:13:27.340Z,5.27
2018-10-03T06:15:56.050Z,9.00
2018-10-03T06:18:25.096Z,4.70
2018-10-03T06:20:53.650Z,4.90
2018-10-03T06:23:22.308Z,6.33
2018-10-03T06:25:51.162Z,4.03
2018-10-03T06:28:19.994Z,7.27
2018-10-03T06:30:49.119Z,7.03
2018-10-03T06:33:18.712Z,6.03
2018-10-03T06:35:48.450Z,4.70
2018-10-03T06:38:17.234Z,3.57
2018-10-03T06:40:46.038Z,4.10
2018-10-03T06:43:14.852Z,3.50
2018-10-03T06:45:43.805Z,5.37
2018-10-03T06:48:12.650Z,3.63
2018-10-03T06:50:41.348Z,3.73
2018-10-03T06:53:10.013Z,3.33
2018-10-03T06:55:38.682Z,4.27
2018-10-03T06:58:07.815Z,3.50
2018-10-03T07:00:36.478Z,4.40
2018-10-03T07:03:05.543Z,4.30
2018-10-03T07:05:34.224Z,5.93
2018-10-03T07:08:03.842Z,3.50
2018-10-03T07:10:32.509Z,3.80
2018-10-03T07:13:01.628Z,4.30
2018-10-03T07:15:30.440Z,4.80
2018-10-03T07:17:59.723Z,4.17
2018-10-03T07:20:29.907Z,3.97
2018-10-03T07:22:58.502Z,3.77
2018-10-03T07:25:27.451Z,4.40
2018-10-03T07:27:56.080Z,3.93
2018-10-03T07:30:27.785Z,4.50
2018-10-03T07:32:57.151Z,3.83
2018-10-03T07:35:26.269Z,3.40
2018-10-03T07:37:55.116Z,3.00
2018-10-03T07:40:24.043Z,4.13
2018-10-03T07:42:53.719Z,3.80
2018-10-03T07:45:22.646Z,3.87
2018-10-03T07:47:51.680Z,2.80
2018-10-03T07:50:21.156Z,3.83
2018-10-03T07:52:51.192Z,4.10
2018-10-03T07:55:19.908Z,3.40
2018-10-03T07:57:49.759Z,3.30
2018-10-03T08:00:25.053Z,3.20
2018-10-03T08:02:54.141Z,3.60
2018-10-03T08:05:25.284Z,3.77
2018-10-03T08:07:57.629Z,3.77
2018-10-03T08:10:28.418Z,3.83
2018-10-03T08:12:57.508Z,2.87
2018-10-03T08:15:26.701Z,3.33
2018-10-03T08:17:57.235Z,2.93
2018-10-03T08:20:30.830Z,3.77
2018-10-03T08:23:00.233Z,3.00
2018-10-03T08:25:29.607Z,2.90
2018-10-03T08:27:59.569Z,2.73
2018-10-03T08:30:30.060Z,2.80
2018-10-03T08:32:59.589Z,3.23
2018-10-03T08:35:30.159Z,2.90
2018-10-03T08:38:00.008Z,2.80
2018-10-03T08:40:31.990Z,3.13
2018-10-03T08:43:03.323Z,3.23
2018-10-03T08:45:32.568Z,2.73
2018-10-03T08:48:02.345Z,2.87
2018-10-03T08:50:34.789Z,2.43
2018-10-03T08:53:07.311Z,2.50
2018-10-03T08:55:37.797Z,2.70
2018-10-03T08:58:08.790Z,2.60
2018-10-03T09:00:40.005Z,2.63
2018-10-03T09:03:09.570Z,2.30
2018-10-03T09:05:39.326Z,2.43
2018-10-03T09:08:15.354Z,2.10
2018-10-03T09:10:47.331Z,2.97
2018-10-03T09:13:16.254Z,2.60
2018-10-03T09:15:52.691Z,2.60
2018-10-03T09:21:29.482Z,2.50
2018-10-03T09:24:06.425Z,2.73
2018-10-03T09:26:43.512Z,3.40
2018-10-03T09:29:20.262Z,2.30
2018-10-03T09:32:00.309Z,3.40
2018-10-03T09:34:39.466Z,2.13
2018-10-03T09:37:25.300Z,2.50
2018-10-03T09:40:12.296Z,2.90
2018-10-03T09:42:57.783Z,2.83
2018-10-03T09:45:38.308Z,2.10
2018-10-03T09:48:15.872Z,3.70
2018-10-03T09:53:52.867Z,3.00
2018-10-03T09:59:35.232Z,2.20
2018-10-03T10:02:08.590Z,2.20
2018-10-03T10:05:25.242Z,2.40
2018-10-03T10:08:05.378Z,3.20
2018-10-03T10:10:49.777Z,2.20
2018-10-03T10:23:52.878Z,2.33
2018-10-03T10:26:34.146Z,2.10
2018-10-03T10:29:26.399Z,3.37
2018-10-03T10:32:12.528Z,2.00
2018-10-03T10:40:52.665Z,2.53
2018-10-03T10:43:49.633Z,3.27
2018-10-03T10:46:33.470Z,2.73
2018-10-03T10:49:37.781Z,3.00
2018-10-03T10:52:16.278Z,2.90
2018-10-03T10:55:18.428Z,2.30
2018-10-03T10:58:00.127Z,2.90
2018-10-03T11:00:49.307Z,2.83
2018-10-03T11:03:32.757Z,2.67
2018-10-03T11:06:18.305Z,2.60
2018-10-03T11:18:21.266Z,2.13
2018-10-03T11:21:22.471Z,2.57
2018-10-03T11:23:57.957Z,2.53
2018-10-03T11:26:46.204Z,2.90
2018-10-03T11:29:31.813Z,2.73
2018-10-03T11:32:15.290Z,2.17
2018-10-03T11:39:52.183Z,3.77
2018-10-03T11:42:39.451Z,3.23
2018-10-03T11:45:41.664Z,2.70
2018-10-03T11:52:19.210Z,2.80
2018-10-03T11:58:12.991Z,2.70
2018-10-03T12:07:09.503Z,2.33
2018-10-03T12:10:08.149Z,2.73
2018-10-03T12:22:17.522Z,2.17
2018-10-03T12:27:50.022Z,2.47
2018-10-03T12:30:37.387Z,1.93
2018-10-03T12:40:10.671Z,2.63
2018-10-03T12:49:31.358Z,2.23
2018-10-03T12:52:10.293Z,6.87
2018-10-03T12:54:49.953Z,2.33
2018-10-03T13:05:40.345Z,1.70
2018-10-03T13:08:45.161Z,1.70
2018-10-03T13:14:49.642Z,2.00
2018-10-03T13:22:55.433Z,1.53
2018-10-03T13:25:47.247Z,1.60
2018-10-03T13:31:59.995Z,1.60
2018-10-03T13:34:53.442Z,1.20
2018-10-03T13:37:46.280Z,1.80
2018-10-03T13:43:33.434Z,2.17
2018-10-03T13:47:03.760Z,1.53
2018-10-03T13:53:36.626Z,1.53
2018-10-03T14:02:56.152Z,1.80
2018-10-03T14:27:59.310Z,1.90
2018-10-03T14:30:57.033Z,2.33
2018-10-03T14:33:43.393Z,1.77
2018-10-03T14:36:23.846Z,1.70
2018-10-03T14:50:47.158Z,2.00
2018-10-03T14:53:37.542Z,2.60
2018-10-03T14:56:17.051Z,2.70
2018-10-03T15:09:23.984Z,2.20
2018-10-03T15:12:38.005Z,2.20
2018-10-03T15:23:24.165Z,2.20
2018-10-03T15:26:11.450Z,1.80
2018-10-03T15:32:01.762Z,2.00
2018-10-03T15:38:53.032Z,2.10
2018-10-03T15:41:48.261Z,1.67
2018-10-03T15:50:59.801Z,1.50
2018-10-03T16:04:02.665Z,1.97
2018-10-03T16:07:00.964Z,1.93
